Terminal Aerodrome Forecast
Issued by NWS

Home | Current Version | Previous Version | Text Only | Print | Product List | Glossary On
Versions: 1 2 3 4 5 6 7 8 9 10 11 12 13
000
FTUS45 KVEF 260533
TAFEED
TAF
KEED 260533Z 2606/2706 30007KT P6SM FEW100 BKN150
     FM261700 VRB05KT P6SM FEW100 SCT250
     FM262200 20010KT P6SM FEW100 SCT250
     FM270200 21007KT P6SM FEW250=

USA.gov is the U.S. government's official web portal to all federal, state and local government web resources and services.